메인 페이지
METAR-TAF:

METAR-TAF

공항 :

말라보, 적도 기니

위도: 03-45-18N, 경도: 08-42-31E, 고도: 23m

현재 날씨관측

예보는 1 시간 0분 전, 08:00시(UTC)에 발표되었습니다.
여러 방향의 바람 2kt
온도 28°C
습도 94%
기압 1015 hPa
시정 10km 이상
고도 1000ft 상공 구름 보통
고도 1600ft 상공 구름 조금, 타워링 적운.

METAR: FGSL 020800Z VRB02KT 9999 SCT010 FEW016TCU 28/27 Q1015 NOSIG

시각: 10:00 (09:00 UTC)

예보

예보는 4 시간 0분 전, 05:00시(UTC)에 발표되었습니다.
예보 대상 시간: 02일 06시부터 03일 12시까지 (UTC)
서남서6kt
시정 10km 이상
고도 1000ft 상공 구름 보통
고도 2000ft 상공 구름 조금, 적란운.
확률 40% :
일시적
02일 10시부터 02일 19시까지 (UTC)
시정: 4500m
고도 800ft 상공 구름 많음
고도 2000ft 상공 구름 조금, 적란운.
뇌우, 비

TAF: FGSL 020500Z 0206/0312 24006KT 9999 SCT010 FEW020CB PROB40 TEMPO 0210/0219 4500 TSRA BKN008 FEW020CB

4,000개 이상의 공항 관측 자료 및 예보 (METAR 및 TAF 보고).

지도상에서 검색 가능한 기상관측소가 노란 점과 빨간 점으로 표시되어 있습니다.

기상관측소 명을 보려면 표시 위로 마우스를 이동하세요.

날씨 관측과 예보를 보려면 클릭하세요.

지도 변경 : 확대하려면 엑스 표시가 있는 녹색 버튼, 축소하려면 빼기 표시가 있는 녹색 버튼, 다음 페이지의 지도를 보려면 녹색 화살표를 클릭하세요.


METAR-TAF: